Time;durP1;ratioP1;P1;durP2;ratioP2;P2;SDS_P1;SDS_P2;PMS_P1;PMS_P2;Temp;Humidity;BMP_temperature;BMP_pressure;BME280_temperature;BME280_humidity;BME280_pressure;Samples;Min_cycle;Max_cycle;Signal;HPM_P1;HPM_P2
2023/03/28 00:00:36;;;;;;;10.93;2.90;;;3.10;99.90;;;2.15;83.29;101475.91;4976738;28;20614;-74
2023/03/28 00:03:07;;;;;;;13.57;3.93;;;3.10;99.90;;;2.21;82.34;101479.03;4977048;28;20193;-74
2023/03/28 00:05:43;;;;;;;14.37;3.23;;;3.20;99.90;;;2.15;82.83;101478.53;4976921;28;20232;-74
2023/03/28 00:08:15;;;;;;;13.60;3.47;;;3.10;99.90;;;2.13;82.97;101477.75;4976650;28;20641;-74
2023/03/28 00:10:48;;;;;;;14.23;3.00;;;3.10;99.90;;;2.15;82.13;101463.56;4976926;28;20243;-74
2023/03/28 00:13:22;;;;;;;10.50;2.87;;;3.10;99.90;;;2.01;82.90;101484.63;4976478;28;20565;-74
2023/03/28 00:15:53;;;;;;;8.67;2.43;;;3.10;99.90;;;2.08;82.94;101485.13;4976742;28;20233;-74
2023/03/28 00:18:25;;;;;;;18.17;4.23;;;3.10;99.90;;;2.02;83.57;101481.88;4976429;28;20193;-74
2023/03/28 00:20:59;;;;;;;12.27;2.83;;;3.10;99.90;;;2.08;82.79;101480.69;4976411;28;20622;-74
2023/03/28 00:23:32;;;;;;;11.80;3.07;;;3.10;99.90;;;1.99;83.64;101489.13;4976731;28;20248;-74
2023/03/28 00:26:12;;;;;;;13.27;2.70;;;3.00;99.90;;;2.08;83.84;101487.75;4976554;28;20232;-74
2023/03/28 00:28:44;;;;;;;12.30;3.53;;;3.10;99.90;;;1.98;83.28;101490.94;4976246;28;20673;-74
2023/03/28 00:31:16;;;;;;;12.60;2.90;;;3.00;99.90;;;1.98;83.70;101492.72;4976568;28;20201;-74
2023/03/28 00:33:48;;;;;;;11.17;2.90;;;3.00;99.90;;;1.98;83.53;101500.66;4975444;28;20224;-74
2023/03/28 00:36:25;;;;;;;17.17;3.47;;;3.00;99.90;;;1.93;84.13;101502.69;4976344;28;20228;-74
2023/03/28 00:38:57;;;;;;;14.53;3.00;;;2.90;99.90;;;1.95;82.30;101506.94;4976375;28;20221;-74
2023/03/28 00:41:33;;;;;;;10.63;2.90;;;3.00;99.90;;;2.03;81.95;101499.44;4976227;28;20242;-74
2023/03/28 00:44:53;;;;;;;10.43;2.73;;;3.00;99.90;;;1.98;82.02;101505.94;4976019;28;20204;-74
2023/03/28 00:47:43;;;;;;;9.67;3.00;;;3.00;99.90;;;1.94;81.99;101512.31;4954673;29;20219;-74
2023/03/28 00:50:21;;;;;;;10.43;3.10;;;3.00;99.90;;;1.87;82.26;101509.19;4974246;28;20235;-74
2023/03/28 00:53:03;;;;;;;10.10;2.47;;;2.90;99.90;;;1.81;82.47;101514.81;4976163;28;20200;-75
2023/03/28 00:55:41;;;;;;;17.17;2.97;;;2.80;99.90;;;1.78;82.27;101514.94;4976081;28;20232;-74
2023/03/28 00:58:17;;;;;;;9.40;2.03;;;2.80;99.90;;;1.81;82.48;101513.94;4976148;28;20204;-74
2023/03/28 01:00:50;;;;;;;16.17;3.00;;;2.80;99.90;;;1.76;82.52;101524.75;4975637;28;20571;-74
2023/03/28 01:03:27;;;;;;;10.83;2.73;;;2.80;99.90;;;1.82;82.66;101534.09;4976039;28;20193;-74
2023/03/28 01:06:02;;;;;;;17.80;3.93;;;2.80;99.90;;;1.72;82.83;101525.00;4975842;28;20315;-74
2023/03/28 01:08:39;;;;;;;20.97;3.63;;;2.70;99.90;;;1.67;83.00;101522.63;4975932;28;20192;-74
2023/03/28 01:11:12;;;;;;;17.43;3.47;;;2.70;99.90;;;1.76;82.71;101527.38;4975861;28;20196;-74
2023/03/28 01:13:48;;;;;;;18.23;3.50;;;2.80;99.90;;;1.75;83.27;101527.47;4975716;28;20197;-74
2023/03/28 01:16:22;;;;;;;18.40;3.93;;;2.80;99.90;;;1.77;82.81;101534.38;4975347;28;20232;-74
2023/03/28 01:18:55;;;;;;;17.43;3.73;;;2.80;99.90;;;1.77;82.92;101538.81;4975746;28;20223;-74
2023/03/28 01:22:15;;;;;;;12.00;3.03;;;2.80;99.90;;;1.75;82.85;101540.66;4975318;28;20705;-74
2023/03/28 01:25:29;;;;;;;12.50;3.03;;;2.70;99.90;;;1.73;82.74;101539.91;4975564;28;20209;-74
2023/03/28 01:28:10;;;;;;;12.30;2.93;;;2.80;99.90;;;1.78;82.83;101545.81;4958636;28;20205;-74
2023/03/28 01:31:20;;;;;;;13.67;3.17;;;2.80;99.90;;;1.74;83.13;101544.25;4975471;28;20189;-74
2023/03/28 01:34:38;;;;;;;10.33;2.77;;;2.80;99.90;;;1.63;83.59;101549.28;4975116;28;20646;-74
2023/03/28 01:37:24;;;;;;;12.77;3.47;;;2.70;99.90;;;1.64;83.66;101557.13;4962473;28;20205;-74
2023/03/28 01:40:24;;;;;;;11.07;3.03;;;2.70;99.90;;;1.70;83.89;101558.56;4975196;28;20189;-74
2023/03/28 01:43:07;;;;;;;9.70;2.80;;;2.70;99.90;;;1.72;83.86;101559.31;4974956;28;20541;-74
2023/03/28 01:45:51;;;;;;;11.67;3.27;;;2.70;99.90;;;1.64;84.17;101557.13;4974964;28;20724;-74
2023/03/28 01:48:36;;;;;;;11.43;3.30;;;2.70;99.90;;;1.70;83.87;101555.91;4974832;28;20192;-74
2023/03/28 01:51:15;;;;;;;14.93;3.73;;;2.70;99.90;;;1.67;84.26;101558.72;4975077;28;20188;-74
2023/03/28 01:53:57;;;;;;;17.57;4.33;;;2.70;99.90;;;1.71;83.68;101560.28;4975074;28;20201;-74
2023/03/28 01:56:37;;;;;;;12.07;3.60;;;2.80;99.90;;;1.65;84.60;101555.31;4974945;28;20225;-74
2023/03/28 01:59:17;;;;;;;14.50;3.50;;;2.70;99.90;;;1.50;84.67;101564.94;4974651;28;20588;-74
2023/03/28 02:01:59;;;;;;;13.53;3.40;;;2.60;99.90;;;1.58;84.74;101564.50;4974922;28;20219;-74
2023/03/28 02:04:34;;;;;;;11.97;3.40;;;2.60;99.90;;;1.53;84.97;101562.97;4974626;28;20664;-74
2023/03/28 02:07:09;;;;;;;13.13;3.53;;;2.60;99.90;;;1.52;84.99;101566.53;4974868;28;20627;-74
2023/03/28 02:09:47;;;;;;;16.20;3.67;;;2.60;99.90;;;1.62;84.20;101579.22;4974876;28;20199;-74
2023/03/28 02:12:24;;;;;;;11.43;3.30;;;2.60;99.90;;;1.65;84.03;101573.78;4974553;28;20189;-74
2023/03/28 02:15:03;;;;;;;14.43;3.60;;;2.70;99.90;;;1.63;83.54;101579.16;4974796;28;20196;-74
2023/03/28 02:17:42;;;;;;;16.57;3.80;;;2.70;99.90;;;1.61;83.82;101570.44;4975034;28;20189;-74
2023/03/28 02:20:19;;;;;;;6.73;2.60;;;2.60;99.90;;;1.63;83.92;101578.31;4974625;28;20267;-74
2023/03/28 02:22:59;;;;;;;11.03;3.37;;;2.60;99.90;;;1.53;84.49;101572.69;4973321;28;20216;-74
2023/03/28 02:25:35;;;;;;;9.83;3.17;;;2.60;99.90;;;1.51;84.11;101563.97;4975041;28;20246;-74
2023/03/28 02:28:11;;;;;;;17.90;3.60;;;2.60;99.90;;;1.56;84.08;101567.22;4974506;28;20227;-74
2023/03/28 02:30:44;;;;;;;18.83;3.60;;;2.60;99.90;;;1.51;84.53;101570.09;4974646;28;20195;-74
2023/03/28 02:33:36;;;;;;;12.07;3.00;;;2.50;99.90;;;1.59;84.24;101571.47;4974573;28;20204;-74
2023/03/28 02:36:29;;;;;;;16.43;3.00;;;2.60;99.90;;;1.52;84.56;101578.88;4974033;28;20256;-74
2023/03/28 02:39:22;;;;;;;11.03;2.90;;;2.50;99.90;;;1.57;83.86;101586.56;4968914;28;20216;-74
2023/03/28 02:42:15;;;;;;;12.73;4.00;;;2.60;99.90;;;1.49;84.05;101587.81;4974374;28;20217;-74
2023/03/28 02:45:30;;;;;;;12.50;3.77;;;2.50;99.90;;;1.43;84.73;101582.88;4974298;28;20196;-74
2023/03/28 02:48:19;;;;;;;10.63;3.50;;;2.50;99.90;;;1.50;83.88;101589.53;4968012;28;20306;-76
2023/03/28 02:51:05;;;;;;;16.63;3.73;;;2.60;99.90;;;1.52;84.26;101582.38;4974204;28;20243;-76
2023/03/28 02:53:49;;;;;;;12.17;3.43;;;2.60;99.90;;;1.52;84.31;101587.66;4974172;28;20537;-76
2023/03/28 02:56:36;;;;;;;17.87;4.30;;;2.60;99.90;;;1.52;84.39;101587.66;4974394;28;20658;-76
2023/03/28 02:59:18;;;;;;;20.57;3.73;;;2.50;99.90;;;1.53;84.24;101594.66;4978104;28;20196;-76
2023/03/28 03:01:51;;;;;;;20.10;3.80;;;2.50;99.90;;;1.58;83.90;101597.00;4977775;28;20216;-76
2023/03/28 03:04:22;;;;;;;11.50;3.50;;;2.60;99.90;;;1.50;84.30;101600.09;4978128;28;20209;-76
2023/03/28 03:06:54;;;;;;;16.23;4.00;;;2.60;99.90;;;1.56;83.96;101608.59;4977664;28;20229;-76
2023/03/28 03:09:28;;;;;;;10.80;3.43;;;2.60;99.90;;;1.61;83.65;101617.13;4978009;28;20193;-76
2023/03/28 03:11:59;;;;;;;11.70;3.03;;;2.60;99.90;;;1.60;83.65;101612.78;4977958;28;20193;-76
2023/03/28 03:14:33;;;;;;;13.50;3.40;;;2.60;99.90;;;1.63;83.85;101620.53;4977901;28;20197;-76
2023/03/28 03:17:05;;;;;;;13.53;3.40;;;2.60;99.90;;;1.59;84.30;101618.97;4977771;28;20224;-76
2023/03/28 03:19:37;;;;;;;12.20;3.17;;;2.60;99.90;;;1.61;84.27;101619.78;4977890;28;20205;-76
2023/03/28 03:22:09;;;;;;;10.53;2.40;;;2.60;99.90;;;1.55;84.52;101620.94;4977701;28;20212;-76
2023/03/28 03:24:51;;;;;;;8.63;2.60;;;2.60;99.90;;;1.57;84.10;101615.59;4977642;28;20193;-76
2023/03/28 03:27:25;;;;;;;12.80;2.73;;;2.60;99.90;;;1.49;84.90;101619.47;4977226;28;20667;-76
2023/03/28 03:29:58;;;;;;;14.43;3.50;;;2.50;99.90;;;1.51;84.80;101617.59;4977324;28;20603;-76
2023/03/28 03:32:31;;;;;;;9.30;2.83;;;2.50;99.90;;;1.56;84.75;101627.06;4977551;28;20208;-76
2023/03/28 03:35:04;;;;;;;11.93;2.77;;;2.60;99.90;;;1.50;84.78;101631.75;4977459;28;20333;-76
2023/03/28 03:37:36;;;;;;;11.40;3.53;;;2.50;99.90;;;1.48;84.85;101638.88;4977506;28;20197;-76
2023/03/28 03:40:10;;;;;;;13.10;2.90;;;2.50;99.90;;;1.48;84.84;101638.88;4977492;28;20197;-76
2023/03/28 03:42:43;;;;;;;13.10;3.70;;;2.50;99.90;;;1.46;85.49;101650.47;4977012;28;20723;-76
2023/03/28 03:45:16;;;;;;;14.23;3.37;;;2.50;99.90;;;1.44;85.62;101642.59;4977252;28;20233;-76
2023/03/28 03:47:48;;;;;;;12.77;3.57;;;2.50;99.90;;;1.44;85.84;101647.03;4977246;28;20197;-76
2023/03/28 03:50:20;;;;;;;15.97;3.63;;;2.50;99.90;;;1.41;85.81;101655.97;4977003;28;20196;-76
2023/03/28 03:52:51;;;;;;;12.17;2.87;;;2.50;99.90;;;1.47;85.36;101658.28;4977215;28;20189;-76
2023/03/28 03:55:25;;;;;;;13.30;3.00;;;2.50;99.90;;;1.51;85.06;101649.28;4976793;28;20236;-76
2023/03/28 03:57:57;;;;;;;12.60;3.30;;;2.60;99.90;;;1.50;85.30;101652.88;4977153;28;20200;-76
2023/03/28 04:00:30;;;;;;;11.43;2.97;;;2.50;99.90;;;1.54;85.29;101654.38;4976841;28;20646;-76
2023/03/28 04:03:02;;;;;;;12.67;3.40;;;2.60;99.90;;;1.56;84.85;101651.69;4977028;28;20666;-76
2023/03/28 04:05:34;;;;;;;12.87;2.83;;;2.60;99.90;;;1.59;85.27;101650.66;4976964;28;20229;-76
2023/03/28 04:08:06;;;;;;;14.93;2.87;;;2.60;99.90;;;1.56;84.91;101645.53;4976474;28;20201;-76
2023/03/28 04:10:38;;;;;;;14.33;2.97;;;2.60;99.90;;;1.61;84.33;101641.72;4976889;28;20192;-76
2023/03/28 04:13:10;;;;;;;12.07;3.30;;;2.70;99.90;;;1.61;84.27;101643.53;4976924;28;20197;-76
2023/03/28 04:15:45;;;;;;;15.97;3.13;;;2.60;99.90;;;1.55;85.00;101647.31;4976773;28;20240;-76
2023/03/28 04:18:19;;;;;;;13.97;3.03;;;2.60;99.90;;;1.54;84.94;101646.47;4976864;28;20243;-76
2023/03/28 04:20:56;;;;;;;13.73;3.37;;;2.60;99.90;;;1.49;85.14;101645.88;4976718;28;20193;-76
2023/03/28 04:23:28;;;;;;;18.67;3.50;;;2.50;99.90;;;1.50;85.36;101650.22;4976678;28;20197;-76
2023/03/28 04:26:01;;;;;;;12.77;3.40;;;2.50;99.90;;;1.43;85.23;101662.03;4976558;28;20243;-76
2023/03/28 04:28:33;;;;;;;10.90;3.27;;;2.50;99.90;;;1.46;84.78;101655.72;4976668;28;20275;-76
2023/03/28 04:31:06;;;;;;;11.20;3.23;;;2.50;99.90;;;1.44;85.06;101660.22;4976735;28;20193;-76
2023/03/28 04:33:38;;;;;;;15.07;3.60;;;2.50;99.90;;;1.42;84.91;101668.22;4976579;28;20201;-76
2023/03/28 04:36:11;;;;;;;16.57;3.77;;;2.50;99.90;;;1.38;85.13;101663.19;4976372;28;20241;-76
2023/03/28 04:38:44;;;;;;;15.23;4.17;;;2.40;99.90;;;1.43;84.87;101662.03;4976349;28;20255;-76
2023/03/28 04:41:16;;;;;;;20.93;4.23;;;2.50;99.90;;;1.42;85.08;101670.88;4976260;28;20197;-76
2023/03/28 04:43:48;;;;;;;14.57;4.00;;;2.40;99.90;;;1.46;84.65;101674.22;4976298;28;20216;-76
2023/03/28 04:46:21;;;;;;;12.87;3.90;;;2.50;99.90;;;1.42;84.91;101681.44;4975876;28;20743;-76
2023/03/28 04:48:53;;;;;;;16.17;4.33;;;2.40;99.90;;;1.34;85.24;101688.88;4976227;28;20193;-76
2023/03/28 04:51:27;;;;;;;12.30;3.90;;;2.40;99.90;;;1.38;85.06;101685.16;4976165;28;20193;-76
2023/03/28 04:53:59;;;;;;;18.40;4.27;;;2.40;99.90;;;1.40;85.25;101682.44;4976157;28;20190;-76
2023/03/28 04:56:31;;;;;;;17.20;4.10;;;2.40;99.90;;;1.35;85.02;101680.03;4975967;28;20225;-76
2023/03/28 04:59:02;;;;;;;15.10;3.60;;;2.40;99.90;;;1.38;84.91;101685.16;4975731;28;20598;-76
2023/03/28 05:01:35;;;;;;;15.70;3.50;;;2.40;99.90;;;1.32;85.33;101692.53;4975832;28;20193;-77
2023/03/28 05:04:08;;;;;;;18.13;3.77;;;2.40;99.90;;;1.22;85.91;101694.78;4975915;28;20287;-77
2023/03/28 05:06:39;;;;;;;14.97;4.10;;;2.30;99.90;;;1.21;85.36;101700.97;4975765;28;20228;-77
2023/03/28 05:09:12;;;;;;;14.37;2.90;;;2.20;99.90;;;1.28;85.53;101707.66;4975537;28;20197;-77
2023/03/28 05:11:44;;;;;;;12.30;3.43;;;2.30;99.90;;;1.24;85.34;101706.09;4975772;28;20197;-77
2023/03/28 05:14:16;;;;;;;14.13;3.43;;;2.30;99.90;;;1.23;85.20;101714.97;4975727;28;20196;-77
2023/03/28 05:16:50;;;;;;;12.50;3.40;;;2.30;99.90;;;1.25;85.63;101731.56;4975538;28;20229;-77
2023/03/28 05:19:21;;;;;;;9.77;2.90;;;2.30;99.90;;;1.21;85.86;101722.09;4975493;28;20193;-77
2023/03/28 05:21:53;;;;;;;11.17;3.20;;;2.30;99.90;;;1.23;85.17;101728.16;4975232;28;20217;-77
2023/03/28 05:24:25;;;;;;;14.07;3.77;;;2.30;99.90;;;1.22;85.85;101737.00;4975238;28;20197;-77
2023/03/28 05:26:57;;;;;;;14.83;3.40;;;2.30;99.90;;;1.23;85.36;101743.13;4975492;28;20225;-77
2023/03/28 05:29:29;;;;;;;15.33;3.80;;;2.30;99.90;;;1.26;85.64;101743.81;4975415;28;20221;-77
2023/03/28 05:32:02;;;;;;;12.67;3.40;;;2.30;99.90;;;1.27;85.68;101744.66;4975470;28;20196;-77
2023/03/28 05:34:34;;;;;;;15.27;3.90;;;2.30;99.90;;;1.30;85.69;101744.53;4975060;28;20634;-77
2023/03/28 05:37:06;;;;;;;13.03;3.00;;;2.40;99.90;;;1.28;85.76;101747.22;4975241;28;20244;-77
2023/03/28 05:39:38;;;;;;;13.70;3.53;;;2.30;99.90;;;1.26;85.90;101743.81;4975324;28;20197;-77
2023/03/28 05:42:10;;;;;;;16.57;3.33;;;2.30;99.90;;;1.29;85.73;101748.09;4975197;28;20221;-76
2023/03/28 05:44:42;;;;;;;8.77;3.07;;;2.30;99.90;;;1.31;85.32;101754.97;4975238;28;20226;-76
2023/03/28 05:47:15;;;;;;;16.03;3.20;;;2.40;99.90;;;1.30;85.50;101749.81;4975212;28;20192;-76
2023/03/28 05:49:47;;;;;;;14.03;3.53;;;2.30;99.90;;;1.29;85.48;101753.38;4974861;28;20650;-76
2023/03/28 05:52:19;;;;;;;16.27;3.70;;;2.40;99.90;;;1.31;85.96;101756.75;4974731;28;20189;-76
2023/03/28 05:54:51;;;;;;;14.03;3.80;;;2.40;99.90;;;1.28;85.91;101752.50;4975024;28;20209;-76
2023/03/28 05:57:23;;;;;;;20.20;4.43;;;2.30;99.90;;;1.29;85.62;101764.78;4974728;28;20257;-76
2023/03/28 05:59:55;;;;;;;17.77;3.73;;;2.30;99.90;;;1.31;85.51;101768.19;4974710;28;20573;-76
2023/03/28 06:02:29;;;;;;;12.80;3.27;;;2.40;99.90;;;1.27;85.29;101771.88;4974947;28;20217;-76
2023/03/28 06:05:01;;;;;;;13.27;3.17;;;2.30;99.90;;;1.29;84.98;101770.03;4974581;28;20614;-76
2023/03/28 06:07:34;;;;;;;16.07;3.80;;;2.30;99.90;;;1.33;85.76;101776.88;4975818;28;20223;-76
2023/03/28 06:10:16;;;;;;;15.77;3.90;;;2.40;99.90;;;1.34;86.06;101786.47;4974959;28;20188;-76
2023/03/28 06:12:48;;;;;;;20.37;4.00;;;2.40;99.90;;;1.34;85.64;101775.94;4974892;28;20200;-76
2023/03/28 06:15:19;;;;;;;14.20;4.03;;;2.30;99.90;;;1.42;85.65;101786.09;4974786;28;20237;-76
2023/03/28 06:17:52;;;;;;;12.80;3.27;;;2.50;99.90;;;1.46;85.42;101777.13;4974877;28;20200;-76
2023/03/28 06:20:24;;;;;;;12.23;3.43;;;2.50;99.90;;;1.47;85.28;101776.19;4974750;28;20267;-76
2023/03/28 06:22:56;;;;;;;17.07;4.30;;;2.50;99.90;;;1.49;85.83;101777.81;4974748;28;20213;-76
2023/03/28 06:25:28;;;;;;;17.97;3.63;;;2.60;99.90;;;1.50;85.42;101789.22;4974365;28;20236;-76
2023/03/28 06:28:00;;;;;;;13.27;3.30;;;2.50;99.90;;;1.52;85.50;101790.00;4974542;28;20220;-76
2023/03/28 06:30:32;;;;;;;16.43;3.53;;;2.60;99.90;;;1.53;85.50;101795.22;4974721;28;20197;-76
2023/03/28 06:33:05;;;;;;;10.73;3.00;;;2.60;99.90;;;1.52;85.29;101792.63;4976804;28;20185;-76
2023/03/28 06:35:37;;;;;;;18.63;3.90;;;2.60;99.90;;;1.53;85.49;101795.22;4978566;28;20225;-76
2023/03/28 06:38:09;;;;;;;9.70;2.90;;;2.60;99.90;;;1.50;84.91;101784.81;4978574;28;20211;-76
2023/03/28 06:40:41;;;;;;;12.17;2.90;;;2.60;99.90;;;1.51;85.54;101788.28;4978597;28;20204;-76
2023/03/28 06:43:13;;;;;;;11.60;2.87;;;2.60;99.90;;;1.58;84.97;101794.09;4978456;28;20220;-76
2023/03/28 06:45:45;;;;;;;9.30;2.90;;;2.60;99.90;;;1.58;84.85;101796.75;4978067;28;20279;-76
2023/03/28 06:48:19;;;;;;;10.27;2.87;;;2.60;99.90;;;1.59;84.90;101795.81;4978161;28;20538;-76
2023/03/28 06:50:51;;;;;;;14.67;4.17;;;2.60;99.90;;;1.65;85.14;101806.06;4978389;28;20197;-76
2023/03/28 06:53:24;;;;;;;11.87;3.07;;;2.60;99.90;;;1.67;84.59;101806.84;4978373;28;20216;-76
2023/03/28 06:55:56;;;;;;;12.03;3.50;;;2.70;99.90;;;1.75;84.43;101809.94;4978249;28;20228;-76
2023/03/28 06:58:28;;;;;;;10.90;3.20;;;2.80;99.90;;;1.82;84.58;101816.63;4977954;28;20201;-76
2023/03/28 07:01:02;;;;;;;11.40;3.30;;;2.80;99.90;;;1.93;83.95;101814.28;4978193;28;20215;-76
2023/03/28 07:03:35;;;;;;;15.70;3.93;;;3.00;99.90;;;1.99;83.79;101820.09;4978099;28;20308;-76
2023/03/28 07:06:11;;;;;;;15.50;3.50;;;3.00;99.90;;;2.01;83.02;101817.41;4977747;28;20621;-76
2023/03/28 07:08:42;;;;;;;15.03;3.13;;;3.00;99.90;;;2.04;83.06;101820.72;4978096;28;20200;-76
2023/03/28 07:11:14;;;;;;;15.20;3.97;;;3.10;99.90;;;2.09;82.13;101824.94;4978027;28;20192;-76
2023/03/28 07:13:46;;;;;;;19.77;3.67;;;3.10;99.90;;;2.14;82.15;101823.75;4977961;28;20200;-76
2023/03/28 07:16:19;;;;;;;10.30;3.37;;;3.20;99.90;;;2.22;83.22;101829.50;4977500;28;20283;-76
2023/03/28 07:18:53;;;;;;;17.40;3.53;;;3.20;99.90;;;2.29;82.23;101828.22;4977590;28;20571;-76
2023/03/28 07:21:25;;;;;;;9.23;3.43;;;3.30;99.90;;;2.37;81.68;101831.31;4977488;28;20662;-77
2023/03/28 07:23:56;;;;;;;12.73;3.63;;;3.40;99.90;;;2.42;80.93;101831.94;4977699;28;20217;-77
2023/03/28 07:26:28;;;;;;;14.73;3.20;;;3.40;99.90;;;2.46;80.01;101825.56;4977682;28;20286;-77
2023/03/28 07:29:00;;;;;;;14.63;3.60;;;3.40;99.90;;;2.57;80.75;101834.69;4977847;28;20673;-77
2023/03/28 07:31:33;;;;;;;15.10;3.87;;;3.60;99.90;;;2.66;80.48;101831.53;4977402;28;20662;-77
2023/03/28 07:34:06;;;;;;;12.97;3.47;;;3.70;99.90;;;2.71;80.80;101829.47;4977596;28;20219;-77
2023/03/28 07:36:40;;;;;;;17.40;4.00;;;3.70;99.90;;;2.74;79.90;101837.28;4977554;28;20233;-77
2023/03/28 07:39:12;;;;;;;15.00;3.70;;;3.70;99.90;;;2.77;79.34;101839.75;4977554;28;20200;-77
2023/03/28 07:41:46;;;;;;;14.07;3.57;;;3.80;99.90;;;2.80;79.93;101840.44;4977725;28;20221;-77
2023/03/28 07:44:17;;;;;;;15.10;4.23;;;3.80;99.90;;;2.81;79.51;101846.59;4976806;28;20213;-77
2023/03/28 07:46:51;;;;;;;13.83;3.43;;;3.80;99.90;;;2.85;79.36;101853.38;4976970;28;20616;-77
2023/03/28 07:49:24;;;;;;;18.30;3.10;;;3.90;99.90;;;2.91;80.03;101864.47;4977376;28;20193;-77
2023/03/28 07:51:56;;;;;;;18.87;3.60;;;3.90;99.90;;;2.91;80.69;101875.06;4976989;28;20673;-77
2023/03/28 07:54:31;;;;;;;11.47;3.27;;;3.90;99.90;;;2.88;82.01;101872.59;4976940;28;20228;-77
2023/03/28 07:57:04;;;;;;;13.87;2.77;;;3.90;99.90;;;2.77;82.71;101882.06;4976817;28;20239;-77
2023/03/28 07:59:36;;;;;;;12.23;2.97;;;3.80;99.90;;;2.69;82.84;101869.25;4977161;28;20197;-76
2023/03/28 08:02:11;;;;;;;8.97;2.70;;;3.70;99.90;;;2.69;83.36;101868.38;4977088;28;20198;-76
2023/03/28 08:04:44;;;;;;;11.53;2.70;;;3.70;99.90;;;2.69;83.81;101868.38;4976959;28;20213;-76
2023/03/28 08:07:17;;;;;;;14.30;3.00;;;3.70;99.90;;;2.70;83.52;101868.31;4977020;28;20201;-76
2023/03/28 08:09:49;;;;;;;10.30;2.70;;;3.70;99.90;;;2.72;83.94;101873.50;4976996;28;20197;-76
2023/03/28 08:12:21;;;;;;;15.30;3.50;;;3.70;99.90;;;2.77;83.66;101871.47;4976666;28;20654;-76
2023/03/28 08:14:53;;;;;;;13.30;3.17;;;3.70;99.90;;;2.78;83.09;101878.47;4976797;28;20193;-76
2023/03/28 08:17:26;;;;;;;17.37;3.70;;;3.80;99.90;;;2.79;83.39;101881.03;4976516;28;20197;-76
2023/03/28 08:19:59;;;;;;;10.07;2.87;;;3.80;99.90;;;2.84;83.34;101878.97;4976816;28;20204;-76
2023/03/28 08:22:31;;;;;;;14.67;3.53;;;3.80;99.90;;;2.94;84.69;101871.41;4977314;28;20252;-76
2023/03/28 08:25:03;;;;;;;9.10;3.70;;;3.90;99.90;;;2.97;83.33;101884.47;4976259;28;20744;-77
2023/03/28 08:27:35;;;;;;;14.77;3.50;;;3.90;99.90;;;3.03;83.40;101887.63;4976484;28;20615;-77
2023/03/28 08:30:10;;;;;;;14.77;3.40;;;4.00;99.90;;;3.08;81.94;101879.44;4976563;28;20201;-77
2023/03/28 08:32:41;;;;;;;14.30;3.33;;;4.10;99.90;;;3.11;81.28;101881.94;4976510;28;20200;-77
2023/03/28 08:35:15;;;;;;;9.77;2.67;;;4.10;99.90;;;3.16;79.82;101879.84;4976450;28;20224;-77
2023/03/28 08:37:47;;;;;;;11.93;2.60;;;4.20;99.90;;;3.24;81.19;101877.66;4976427;28;20216;-77
2023/03/28 08:40:24;;;;;;;14.67;2.87;;;4.20;99.90;;;3.34;79.70;101880.63;4976525;28;20189;-77
2023/03/28 08:43:19;;;;;;;17.00;3.50;;;4.30;99.90;;;3.46;80.31;101877.28;4976060;28;20211;-77
2023/03/28 08:45:56;;;;;;;14.73;3.77;;;4.40;99.90;;;3.56;79.13;101871.38;4976238;28;20229;-77
2023/03/28 08:48:35;;;;;;;17.27;3.70;;;4.50;99.90;;;3.75;79.13;101883.56;4976257;28;20197;-77
2023/03/28 08:51:19;;;;;;;8.50;3.43;;;4.70;99.90;;;3.90;77.57;101882.69;4976202;28;20247;-77
2023/03/28 08:54:02;;;;;;;15.57;3.37;;;4.80;99.90;;;3.97;77.67;101890.16;4976120;28;20193;-77
2023/03/28 08:56:40;;;;;;;17.97;3.17;;;4.90;99.90;;;3.95;76.32;101885.91;4975341;28;20233;-77
2023/03/28 08:59:19;;;;;;;15.57;3.70;;;4.90;99.90;;;4.05;76.02;101892.34;4976065;28;20252;-77
2023/03/28 09:01:51;;;;;;;16.53;4.00;;;5.00;99.90;;;4.13;75.55;101892.75;4975991;28;20196;-77
2023/03/28 09:04:33;;;;;;;13.67;3.27;;;5.10;99.90;;;4.17;75.06;101886.34;4975858;28;20217;-77
2023/03/28 09:07:25;;;;;;;13.27;3.47;;;5.10;99.90;;;4.22;73.72;101891.34;4975803;28;20232;-77
2023/03/28 09:10:10;;;;;;;13.03;3.27;;;5.20;99.70;;;4.22;72.58;101894.00;4975882;28;20279;-77
2023/03/28 09:13:02;;;;;;;13.17;3.73;;;5.20;99.70;;;4.27;74.67;101892.81;4975813;28;20200;-77
2023/03/28 09:16:07;;;;;;;12.90;3.03;;;5.20;99.80;;;4.29;75.06;101896.19;4975418;28;20230;-77
2023/03/28 09:19:09;;;;;;;13.47;3.60;;;5.20;99.90;;;4.37;74.83;101899.25;4973796;28;20236;-77
2023/03/28 09:22:00;;;;;;;12.43;2.97;;;5.30;99.90;;;4.42;73.72;101901.59;4975838;28;20215;-77
2023/03/28 09:24:50;;;;;;;11.83;2.90;;;5.40;99.60;;;4.40;74.91;101898.22;4975560;28;20220;-77
2023/03/28 09:27:32;;;;;;;14.47;2.70;;;5.30;99.90;;;4.41;74.22;101900.78;4975445;28;20189;-77
2023/03/28 09:30:19;;;;;;;10.80;3.00;;;5.30;99.50;;;4.46;72.95;101904.00;4975530;28;20193;-77
2023/03/28 09:32:57;;;;;;;10.60;3.63;;;5.40;99.30;;;4.47;74.12;101900.41;4975413;28;20268;-77
2023/03/28 09:35:31;;;;;;;19.73;3.47;;;5.40;99.40;;;4.52;73.33;101903.63;4975539;28;20311;-77
2023/03/28 09:38:11;;;;;;;11.20;2.97;;;5.50;99.70;;;4.53;72.61;101910.63;4975331;28;20664;-77
2023/03/28 09:40:47;;;;;;;11.17;2.80;;;5.50;99.30;;;4.59;73.21;101902.28;4975806;28;20197;-77
2023/03/28 09:43:29;;;;;;;13.17;3.50;;;5.50;99.50;;;4.65;72.61;101909.03;4975018;28;20595;-77
2023/03/28 09:46:05;;;;;;;11.50;2.73;;;5.60;98.90;;;4.69;71.77;101907.06;4975090;28;20233;-77
2023/03/28 09:48:39;;;;;;;13.60;3.00;;;5.60;98.60;;;4.72;70.64;101894.47;4975238;28;20199;-77
2023/03/28 09:51:18;;;;;;;12.77;2.97;;;5.60;97.90;;;4.76;70.33;101900.44;4974894;28;20561;-77
2023/03/28 09:53:50;;;;;;;14.70;3.30;;;5.70;97.90;;;4.84;71.82;101898.13;4975121;28;20213;-77
2023/03/28 09:56:32;;;;;;;13.97;3.53;;;5.80;98.30;;;4.92;70.76;101909.13;4975023;28;20224;-77
2023/03/28 09:59:10;;;;;;;14.70;3.03;;;5.80;98.10;;;5.04;70.83;101906.56;4975106;28;20197;-77
2023/03/28 10:01:47;;;;;;;11.50;3.40;;;5.90;98.30;;;5.10;70.10;101905.34;4975025;28;20201;-77
2023/03/28 10:04:32;;;;;;;12.03;2.80;;;6.00;97.70;;;5.22;69.10;101906.34;4974926;28;20208;-77
2023/03/28 10:07:31;;;;;;;11.13;2.60;;;6.10;97.40;;;5.33;68.29;101899.41;4974712;28;20228;-76
2023/03/28 10:10:17;;;;;;;15.80;4.10;;;6.20;97.00;;;5.34;67.11;101898.44;4974974;28;20193;-76
2023/03/28 10:13:01;;;;;;;10.60;3.13;;;6.30;96.30;;;5.40;68.46;101899.84;4974873;28;20193;-76
2023/03/28 10:15:42;;;;;;;12.20;2.97;;;6.30;97.00;;;5.53;67.77;101893.66;4974839;28;20230;-76
2023/03/28 10:18:21;;;;;;;13.93;3.40;;;6.40;96.00;;;5.54;67.57;101887.41;4974840;28;20291;-76
2023/03/28 10:20:53;;;;;;;10.93;2.90;;;6.40;96.50;;;5.58;66.53;101888.06;4974780;28;20203;-76
2023/03/28 10:23:26;;;;;;;10.47;2.67;;;6.50;96.00;;;5.54;66.03;101890.06;4974994;28;20225;-76
2023/03/28 10:26:03;;;;;;;13.20;3.10;;;6.50;95.60;;;5.58;65.42;101894.19;4974275;28;20705;-76
2023/03/28 10:28:38;;;;;;;13.60;2.90;;;6.50;95.30;;;5.60;65.50;101889.66;4974409;28;20264;-76
2023/03/28 10:31:21;;;;;;;14.80;2.67;;;6.50;95.50;;;5.77;64.77;101890.31;4974630;28;20200;-76
2023/03/28 10:33:56;;;;;;;9.50;3.03;;;6.60;95.30;;;5.90;65.05;101885.94;4974359;28;20320;-76
2023/03/28 10:36:32;;;;;;;7.73;2.70;;;6.70;95.70;;;5.90;67.18;101897.41;4974535;28;20231;-76
2023/03/28 10:39:21;;;;;;;9.70;2.73;;;6.80;96.00;;;5.88;64.82;101887.84;4974917;28;20197;-76
2023/03/28 10:41:58;;;;;;;7.83;2.77;;;6.80;94.70;;;5.87;63.03;101889.66;4974668;28;20189;-76
2023/03/28 10:44:35;;;;;;;11.43;2.50;;;6.80;94.50;;;5.82;60.07;101889.06;4974484;28;20200;-76
2023/03/28 10:47:14;;;;;;;11.53;2.63;;;6.70;92.40;;;5.94;61.15;101898.06;4974206;28;20653;-76
2023/03/28 10:49:52;;;;;;;7.47;2.50;;;6.80;92.90;;;5.93;62.15;101891.03;4974585;28;20193;-76
2023/03/28 10:52:38;;;;;;;8.57;2.30;;;6.80;93.30;;;5.92;63.00;101889.34;4974583;28;20200;-76
2023/03/28 10:55:19;;;;;;;9.83;2.70;;;6.80;93.60;;;5.89;60.79;101881.59;4974451;28;20229;-76
2023/03/28 10:58:03;;;;;;;8.80;2.50;;;6.80;92.70;;;5.84;60.29;101886.31;4974495;28;20193;-76
2023/03/28 11:00:41;;;;;;;8.17;3.27;;;6.80;93.00;;;5.87;61.74;101880.81;4974700;28;20197;-76